Главная страница
METAR-TAF:

METAR-TAF

Аэропорты :

Бурленге, Швеция

широта: 60-26N, долгота: 015-31E, высота над уровнем моря: 145 м

Текущие метеонаблюдения

Эта сводка был подготовлена 32 минут назад, в 20:20 UTC
Ветер 7 Узел от западный-юго-западный
Температура 10°C
Влажность 100%
Давление 1027 hPa
Видимость 10 км и более

METAR: ESSD 152020Z AUTO 25007KT 9999 FEW010/// BKN015/// 10/10 Q1027

Время: 21:52 (20:52 UTC)

Прогноз

Эта сводка был подготовлена 3 часа и 22 минут назад, в 17:30 UTC
Прогноз действительный с 15-го 18 UTC до 15-го 20 UTC
Ветер 6 Узел от юго-западный
Видимость 10 км и более
Сплошная облачность на высоте 900 фута
временами
С 15-го 18 UTC до 15-го 20 UTC
Рассеянная облачность на высоте 1500 фута

TAF: ESSD 151730Z 1518/1520 23006KT 9999 OVC009 TEMPO 1518/1520 BKN015

Метеонаблюдения и прогнозы для более 4000 аэропортов (сводки METAR и TAF).

Имеющиеся станции представлены на карте желтыми и красными точками.

Чтобы увидеть название станции, наведите на нее мышь.

Затем щелкните, чтобы увидеть метеонаблюдения и метеопрогнозы.

Управление картой: чтобы увеличить масштаб, щелкните зеленые кнопки с черным крестиком; чтобы уменьшить масштаб, щелкните зеленую кнопку с тире; для просмотра соседних карт щелкайте зеленые стрелки.


METAR-TAF: